Glasgow International Airport (GLA/EGPF)



Flight Aircraft Arriving
CPX921
EDDK - Cologne Bonn Airport
Germany Cologne, Germany
Flight Aircraft Departing
CPX920
EDDK - Cologne Bonn Airport
Germany Cologne, Germany


Airport Information
Location: Glasgow,
Coordinates: 55.8719 / -4.43306
Field Elevation: 21ft
Longest Runway: 8,727ft
ILS Approaches: YES
Landing Fees: $1,211 per flight
Jet A Price: $0.33/lbs

Current Weather
METAR: EGPF 070320Z AUTO VRB02KT 9999 -RA SCT030 BKN038 03/02 Q1000
TAF: TAF AMD EGPF 070245Z 0702/0724 17010KT 9999 SCT025 BECMG 0702/0705 10004KT PROB30 TEMPO 0702/0704 7000 -SHRA BKN014 PROB40 0704/0710 4000 BR BECMG 0710/0712 09014KT PROB30 TEMPO 0711/0713 6000 -SNRA BECMG 0712/0715 09022G35KT BKN012 TEMPO 0713/0718 4000 RASN BKN008 PROB40 TEMPO 0713/0717 1200 +RA SN BKN003 BECMG 0718/0721 09012KT SCT020

Recent Arrivals
Date Flight Type Depart
11/18/2021 CPX920 A30F Cologne Bonn Airport (EDDK)
09/21/2021 CPX920 A30F Cologne Bonn Airport (EDDK)
Recent Departures
Date Flight Type Arrive
11/29/2021 CPX921 A30F Cologne Bonn Airport (EDDK)
09/23/2021 CPX921 A30F Cologne Bonn Airport (EDDK)